Time;durP1;ratioP1;P1;durP2;ratioP2;P2;SDS_P1;SDS_P2;PMS_P1;PMS_P2;Temp;Humidity;BMP_temperature;BMP_pressure;BME280_temperature;BME280_humidity;BME280_pressure;Samples;Min_cycle;Max_cycle;Signal;HPM_P1;HPM_P2
2023/04/17 00:01:39;;;;;;;43.13;25.60;;;;;;;;;;5051679;28;20052;-60
2023/04/17 00:04:09;;;;;;;50.87;27.33;;;;;;;;;;5051642;28;20091;-60
2023/04/17 00:06:36;;;;;;;42.53;26.10;;;;;;;;;;5051808;28;20049;-60
2023/04/17 00:09:03;;;;;;;47.83;28.27;;;;;;;;;;5051685;28;20037;-60
2023/04/17 00:11:29;;;;;;;49.93;28.30;;;;;;;;;;5050784;28;20403;-60
2023/04/17 00:13:55;;;;;;;46.37;27.37;;;;;;;;;;5051570;28;20048;-61
2023/04/17 00:16:21;;;;;;;46.73;27.23;;;;;;;;;;5051878;28;20060;-61
2023/04/17 00:18:47;;;;;;;44.63;26.83;;;;;;;;;;5050903;28;20056;-60
2023/04/17 00:21:13;;;;;;;45.80;26.87;;;;;;;;;;5052696;28;20032;-61
2023/04/17 00:23:39;;;;;;;49.30;27.70;;;;;;;;;;5051126;28;20529;-60
2023/04/17 00:26:05;;;;;;;43.83;26.63;;;;;;;;;;5051247;28;20068;-60
2023/04/17 00:28:32;;;;;;;47.63;27.63;;;;;;;;;;5051065;28;20068;-60
2023/04/17 00:30:58;;;;;;;47.07;28.23;;;;;;;;;;5051304;28;20060;-60
2023/04/17 00:33:24;;;;;;;50.63;27.17;;;;;;;;;;5051047;28;20086;-60
2023/04/17 00:35:51;;;;;;;52.93;28.33;;;;;;;;;;5051414;28;20053;-60
2023/04/17 00:38:17;;;;;;;44.03;26.77;;;;;;;;;;5060752;28;20055;-60
2023/04/17 00:40:47;;;;;;;44.23;25.70;;;;;;;;;;5071304;28;20045;-61
2023/04/17 00:43:13;;;;;;;46.33;28.30;;;;;;;;;;5071146;28;20052;-60
2023/04/17 00:45:41;;;;;;;48.07;27.67;;;;;;;;;;5071147;28;20351;-61
2023/04/17 00:48:08;;;;;;;44.70;26.10;;;;;;;;;;5071159;28;20059;-61
2023/04/17 00:50:35;;;;;;;48.80;27.60;;;;;;;;;;5070617;28;20414;-60
2023/04/17 00:53:01;;;;;;;50.63;29.67;;;;;;;;;;5052465;28;20041;-60
2023/04/17 00:55:27;;;;;;;50.73;28.83;;;;;;;;;;5050828;28;20120;-60
2023/04/17 00:57:55;;;;;;;44.50;25.63;;;;;;;;;;5050313;28;20422;-60
2023/04/17 01:00:21;;;;;;;46.10;26.37;;;;;;;;;;5050753;28;20137;-61
2023/04/17 01:02:47;;;;;;;40.97;25.33;;;;;;;;;;5050754;28;20048;-61
2023/04/17 01:05:13;;;;;;;41.63;25.10;;;;;;;;;;5050564;28;20045;-60
2023/04/17 01:07:40;;;;;;;49.07;27.37;;;;;;;;;;5050902;28;20079;-60
2023/04/17 01:10:06;;;;;;;40.87;24.47;;;;;;;;;;5050641;28;20419;-60
2023/04/17 01:12:32;;;;;;;40.57;24.77;;;;;;;;;;5053592;28;20047;-60
2023/04/17 01:14:58;;;;;;;43.23;25.03;;;;;;;;;;5070949;28;20060;-60
2023/04/17 01:17:25;;;;;;;41.20;26.03;;;;;;;;;;5070501;28;20109;-60
2023/04/17 01:19:51;;;;;;;38.97;24.43;;;;;;;;;;5070103;28;20098;-60
2023/04/17 01:22:20;;;;;;;45.20;26.23;;;;;;;;;;5061227;28;20049;-61
2023/04/17 01:24:47;;;;;;;45.40;25.90;;;;;;;;;;5060061;28;20114;-60
2023/04/17 01:27:13;;;;;;;46.40;26.50;;;;;;;;;;5069969;28;20495;-61
2023/04/17 01:29:40;;;;;;;44.23;27.23;;;;;;;;;;5069717;28;20118;-61
2023/04/17 01:32:06;;;;;;;43.97;26.20;;;;;;;;;;5070079;28;20056;-61
2023/04/17 01:34:32;;;;;;;43.80;25.97;;;;;;;;;;5069286;28;20140;-61
2023/04/17 01:36:58;;;;;;;47.93;29.03;;;;;;;;;;5068491;28;20138;-61
2023/04/17 01:39:24;;;;;;;46.30;25.87;;;;;;;;;;5069279;28;20048;-61
2023/04/17 01:41:50;;;;;;;47.43;28.20;;;;;;;;;;5069995;28;20055;-61
2023/04/17 01:44:17;;;;;;;47.67;27.27;;;;;;;;;;5068835;28;20135;-61
2023/04/17 01:46:43;;;;;;;47.27;28.37;;;;;;;;;;5069432;28;20071;-60
2023/04/17 01:49:10;;;;;;;48.77;27.97;;;;;;;;;;5070201;28;20044;-60
2023/04/17 01:51:36;;;;;;;48.33;28.80;;;;;;;;;;5063560;28;20039;-60
2023/04/17 01:54:02;;;;;;;53.37;27.77;;;;;;;;;;5049829;28;20088;-61
2023/04/17 01:56:28;;;;;;;46.43;28.07;;;;;;;;;;5049446;28;20054;-62
2023/04/17 01:58:54;;;;;;;47.90;28.50;;;;;;;;;;5049461;28;20714;-61
2023/04/17 02:01:20;;;;;;;50.53;30.13;;;;;;;;;;5049705;28;20040;-61
2023/04/17 02:03:46;;;;;;;49.63;28.60;;;;;;;;;;5048990;28;20048;-61
2023/04/17 02:06:12;;;;;;;52.33;30.27;;;;;;;;;;5049720;28;20045;-61
2023/04/17 02:08:38;;;;;;;54.60;30.53;;;;;;;;;;5049426;28;20052;-61
2023/04/17 02:11:04;;;;;;;53.77;30.17;;;;;;;;;;5049579;28;20552;-61
2023/04/17 02:13:30;;;;;;;53.17;28.97;;;;;;;;;;5065983;28;20893;-61
2023/04/17 02:15:56;;;;;;;51.07;29.77;;;;;;;;;;5069294;28;20044;-61
2023/04/17 02:18:22;;;;;;;52.87;29.43;;;;;;;;;;5069157;28;20041;-61
2023/04/17 02:20:48;;;;;;;51.27;29.90;;;;;;;;;;5069282;28;20043;-61
2023/04/17 02:23:14;;;;;;;57.13;31.73;;;;;;;;;;5066753;28;20040;-61
2023/04/17 02:25:40;;;;;;;55.37;31.60;;;;;;;;;;5068796;28;20040;-61
2023/04/17 02:28:06;;;;;;;52.80;30.67;;;;;;;;;;5068176;28;20392;-61
2023/04/17 02:30:32;;;;;;;50.20;29.60;;;;;;;;;;5067878;28;20048;-61
2023/04/17 02:32:58;;;;;;;53.77;30.23;;;;;;;;;;5068722;28;20049;-61
2023/04/17 02:35:26;;;;;;;63.43;31.77;;;;;;;;;;5068901;28;20048;-61
2023/04/17 02:37:52;;;;;;;59.13;31.73;;;;;;;;;;5068528;28;20075;-61
2023/04/17 02:40:18;;;;;;;55.43;30.33;;;;;;;;;;5068793;28;20045;-61
2023/04/17 02:42:44;;;;;;;55.30;31.73;;;;;;;;;;5068321;28;20098;-61
2023/04/17 02:45:11;;;;;;;54.33;31.30;;;;;;;;;;5067500;28;20048;-61
2023/04/17 02:47:37;;;;;;;52.67;30.77;;;;;;;;;;5068746;28;20445;-61
2023/04/17 02:50:03;;;;;;;52.03;30.30;;;;;;;;;;5068100;28;20089;-61
2023/04/17 02:52:30;;;;;;;61.90;33.10;;;;;;;;;;5055683;28;20045;-61
2023/04/17 02:54:56;;;;;;;62.27;32.27;;;;;;;;;;5048453;28;20089;-61
2023/04/17 02:57:22;;;;;;;60.03;33.00;;;;;;;;;;5047956;28;20071;-61
2023/04/17 02:59:49;;;;;;;56.47;32.63;;;;;;;;;;5048381;28;20045;-61
2023/04/17 03:02:15;;;;;;;56.93;33.53;;;;;;;;;;5053076;28;20561;-61
2023/04/17 03:04:42;;;;;;;64.40;32.43;;;;;;;;;;5068317;28;20052;-61
2023/04/17 03:07:09;;;;;;;62.93;34.07;;;;;;;;;;5068301;28;20048;-61
2023/04/17 03:09:35;;;;;;;55.57;33.07;;;;;;;;;;5068513;28;20534;-61
2023/04/17 03:12:01;;;;;;;59.30;34.20;;;;;;;;;;5067407;28;20089;-61
2023/04/17 03:14:27;;;;;;;62.30;34.60;;;;;;;;;;5068763;28;20044;-61
2023/04/17 03:16:53;;;;;;;56.07;32.77;;;;;;;;;;5068523;28;20056;-61
2023/04/17 03:19:19;;;;;;;58.27;32.53;;;;;;;;;;5068754;28;20119;-61
2023/04/17 03:21:45;;;;;;;56.97;32.50;;;;;;;;;;5059094;28;20107;-61
2023/04/17 03:24:11;;;;;;;57.20;34.27;;;;;;;;;;5060064;28;20056;-61
2023/04/17 03:26:37;;;;;;;60.13;33.83;;;;;;;;;;5067989;28;20052;-61
2023/04/17 03:29:03;;;;;;;57.80;32.83;;;;;;;;;;5068565;28;20190;-61
2023/04/17 03:31:29;;;;;;;57.67;32.47;;;;;;;;;;5068638;28;20052;-61
2023/04/17 03:33:55;;;;;;;65.63;34.63;;;;;;;;;;5058728;28;20063;-61
2023/04/17 03:36:21;;;;;;;66.70;36.43;;;;;;;;;;5048385;28;20074;-61
2023/04/17 03:38:47;;;;;;;59.00;34.10;;;;;;;;;;5048091;28;20055;-61
2023/04/17 03:41:14;;;;;;;60.27;34.87;;;;;;;;;;5047837;28;20041;-61
2023/04/17 03:43:40;;;;;;;59.03;32.67;;;;;;;;;;5048345;28;20045;-61
2023/04/17 03:46:06;;;;;;;57.33;33.53;;;;;;;;;;5047152;28;20049;-61
2023/04/17 03:48:32;;;;;;;62.80;35.43;;;;;;;;;;5054378;28;20040;-61
2023/04/17 03:50:58;;;;;;;61.53;32.07;;;;;;;;;;5068125;28;20052;-60
2023/04/17 03:53:24;;;;;;;63.90;33.50;;;;;;;;;;5053423;28;20112;-61
2023/04/17 03:55:50;;;;;;;64.77;33.67;;;;;;;;;;5054126;28;20045;-62
2023/04/17 03:58:16;;;;;;;60.00;33.13;;;;;;;;;;5067493;28;20079;-60
2023/04/17 04:00:44;;;;;;;62.10;34.17;;;;;;;;;;5068179;28;20090;-61
2023/04/17 04:03:10;;;;;;;63.87;35.17;;;;;;;;;;5068164;28;20549;-61
2023/04/17 04:05:36;;;;;;;60.93;35.87;;;;;;;;;;5068089;28;20173;-60
2023/04/17 04:08:02;;;;;;;65.27;36.23;;;;;;;;;;5051139;28;20063;-61
2023/04/17 04:10:28;;;;;;;57.37;34.10;;;;;;;;;;5051680;28;20491;-61
2023/04/17 04:12:54;;;;;;;62.33;33.70;;;;;;;;;;5064632;28;20083;-61
2023/04/17 04:15:20;;;;;;;63.13;34.00;;;;;;;;;;5071689;28;20644;-61
2023/04/17 04:17:46;;;;;;;63.53;35.00;;;;;;;;;;5071806;28;20045;-61
2023/04/17 04:20:12;;;;;;;65.53;35.50;;;;;;;;;;5071325;28;20047;-61
2023/04/17 04:22:40;;;;;;;60.83;34.03;;;;;;;;;;5053269;28;20045;-61
2023/04/17 04:25:06;;;;;;;58.40;33.60;;;;;;;;;;5050863;28;20045;-60
2023/04/17 04:27:32;;;;;;;60.57;33.40;;;;;;;;;;5052425;28;20052;-60
2023/04/17 04:30:03;;;;;;;64.93;35.07;;;;;;;;;;5066787;28;20452;-60
2023/04/17 04:32:29;;;;;;;63.67;36.33;;;;;;;;;;5071384;28;20186;-60
2023/04/17 04:34:57;;;;;;;66.90;34.53;;;;;;;;;;5070961;28;20044;-61
2023/04/17 04:37:28;;;;;;;56.10;33.83;;;;;;;;;;5071259;28;20045;-60
2023/04/17 04:40:05;;;;;;;60.43;34.10;;;;;;;;;;5070966;28;20622;-60
2023/04/17 04:42:31;;;;;;;64.97;36.77;;;;;;;;;;5069261;28;20102;-60
2023/04/17 04:44:57;;;;;;;59.47;35.13;;;;;;;;;;5070814;28;20052;-60
2023/04/17 04:47:23;;;;;;;64.33;35.37;;;;;;;;;;5071085;28;20127;-60
2023/04/17 04:49:49;;;;;;;63.03;33.83;;;;;;;;;;5069124;28;20049;-60
2023/04/17 04:52:15;;;;;;;65.37;35.83;;;;;;;;;;5065331;28;20557;-60
2023/04/17 04:54:41;;;;;;;61.40;33.40;;;;;;;;;;5048289;28;20135;-60
2023/04/17 04:57:07;;;;;;;60.23;33.60;;;;;;;;;;5048280;28;20135;-60
2023/04/17 04:59:34;;;;;;;61.17;33.50;;;;;;;;;;5048565;28;20048;-60
2023/04/17 05:02:00;;;;;;;59.80;32.27;;;;;;;;;;5047924;28;20529;-60
2023/04/17 05:04:26;;;;;;;61.87;34.17;;;;;;;;;;5057883;28;20116;-60
2023/04/17 05:06:52;;;;;;;64.03;34.33;;;;;;;;;;5058262;28;20131;-60
2023/04/17 05:09:18;;;;;;;57.47;33.23;;;;;;;;;;5057610;28;20040;-60
2023/04/17 05:11:44;;;;;;;56.03;31.53;;;;;;;;;;5058795;28;20043;-60
2023/04/17 05:14:10;;;;;;;55.13;31.33;;;;;;;;;;5058329;28;20049;-60
2023/04/17 05:16:36;;;;;;;56.27;31.87;;;;;;;;;;5069985;28;20514;-61
2023/04/17 05:19:02;;;;;;;63.60;32.97;;;;;;;;;;5070205;28;20045;-60
2023/04/17 05:21:28;;;;;;;51.03;28.73;;;;;;;;;;5058809;28;20042;-60
2023/04/17 05:23:54;;;;;;;46.43;27.77;;;;;;;;;;5059348;28;20045;-60
2023/04/17 05:26:23;;;;;;;52.63;29.73;;;;;;;;;;5057206;28;20499;-60
2023/04/17 05:28:49;;;;;;;52.13;29.93;;;;;;;;;;5057155;28;20232;-60
2023/04/17 05:31:15;;;;;;;53.23;29.37;;;;;;;;;;5056422;28;20045;-60
2023/04/17 05:33:41;;;;;;;57.20;29.33;;;;;;;;;;5053312;28;20041;-60
2023/04/17 05:36:08;;;;;;;48.90;29.90;;;;;;;;;;5056011;28;20090;-61
2023/04/17 05:38:35;;;;;;;53.73;29.73;;;;;;;;;;5055126;28;20520;-61
2023/04/17 05:41:01;;;;;;;52.37;28.80;;;;;;;;;;5060989;28;20418;-61
2023/04/17 05:43:27;;;;;;;48.20;27.53;;;;;;;;;;5057869;28;20041;-61
2023/04/17 05:45:53;;;;;;;50.70;30.00;;;;;;;;;;5057641;28;20128;-60
2023/04/17 05:48:19;;;;;;;47.73;28.53;;;;;;;;;;5058261;28;20079;-60
2023/04/17 05:50:46;;;;;;;51.00;29.53;;;;;;;;;;5056949;28;20491;-61
2023/04/17 05:53:12;;;;;;;48.47;28.63;;;;;;;;;;5049665;28;20041;-61
2023/04/17 05:55:38;;;;;;;47.93;28.97;;;;;;;;;;5068702;28;20037;-60
2023/04/17 05:58:04;;;;;;;44.67;27.50;;;;;;;;;;5069549;28;20044;-61
2023/04/17 06:00:31;;;;;;;48.17;27.10;;;;;;;;;;5064607;28;20041;-60
2023/04/17 06:02:57;;;;;;;44.40;25.87;;;;;;;;;;5049611;28;20419;-60
2023/04/17 06:05:23;;;;;;;44.90;27.03;;;;;;;;;;5049112;28;20514;-60
2023/04/17 06:07:49;;;;;;;42.97;26.70;;;;;;;;;;5048041;28;20045;-60
2023/04/17 06:10:15;;;;;;;44.53;26.73;;;;;;;;;;5049211;28;20041;-60
2023/04/17 06:12:41;;;;;;;48.50;27.57;;;;;;;;;;5049263;28;20083;-61
2023/04/17 06:15:08;;;;;;;41.40;27.30;;;;;;;;;;5066188;28;20052;-60
2023/04/17 06:17:35;;;;;;;42.53;25.93;;;;;;;;;;5052168;28;20052;-60
2023/04/17 06:20:03;;;;;;;44.77;27.03;;;;;;;;;;5067327;28;20074;-60
2023/04/17 06:22:29;;;;;;;45.73;26.90;;;;;;;;;;5059114;28;20118;-61
2023/04/17 06:24:55;;;;;;;43.73;27.27;;;;;;;;;;5062544;28;20064;-60
2023/04/17 06:27:21;;;;;;;42.37;25.67;;;;;;;;;;5062944;28;20064;-60
2023/04/17 06:29:47;;;;;;;42.63;26.87;;;;;;;;;;5068332;28;20049;-60
2023/04/17 06:32:13;;;;;;;41.03;26.33;;;;;;;;;;5066110;28;20048;-61
2023/04/17 06:34:39;;;;;;;42.90;26.30;;;;;;;;;;5059363;28;20556;-61
2023/04/17 06:37:05;;;;;;;41.33;25.97;;;;;;;;;;5047647;28;20072;-61
2023/04/17 06:39:32;;;;;;;39.97;25.70;;;;;;;;;;5047281;28;20621;-61
2023/04/17 06:41:59;;;;;;;45.47;27.57;;;;;;;;;;5047548;28;20400;-61
2023/04/17 06:44:25;;;;;;;41.93;25.57;;;;;;;;;;5065472;28;20490;-61
2023/04/17 06:46:52;;;;;;;43.43;26.13;;;;;;;;;;5057222;28;20045;-61
2023/04/17 06:49:18;;;;;;;38.33;25.90;;;;;;;;;;5046998;28;20044;-61
2023/04/17 06:51:46;;;;;;;40.03;24.97;;;;;;;;;;5058814;28;20037;-61
2023/04/17 06:54:12;;;;;;;38.67;25.80;;;;;;;;;;5062478;28;20045;-61
2023/04/17 06:56:39;;;;;;;40.20;25.83;;;;;;;;;;5067757;28;20045;-61
2023/04/17 06:59:05;;;;;;;41.87;26.43;;;;;;;;;;5057039;28;20502;-61
2023/04/17 07:01:33;;;;;;;36.53;25.23;;;;;;;;;;5060651;28;20609;-61
2023/04/17 07:03:59;;;;;;;39.73;26.47;;;;;;;;;;5068495;28;20048;-61
2023/04/17 07:06:26;;;;;;;40.03;25.90;;;;;;;;;;5062633;28;20143;-61
2023/04/17 07:08:52;;;;;;;38.20;26.27;;;;;;;;;;5063835;28;20078;-61
2023/04/17 07:11:18;;;;;;;38.73;25.97;;;;;;;;;;5053701;28;20480;-61
2023/04/17 07:13:44;;;;;;;42.50;26.93;;;;;;;;;;5057148;28;20040;-61
2023/04/17 07:16:10;;;;;;;35.77;25.33;;;;;;;;;;5066832;28;20048;-61
2023/04/17 07:18:36;;;;;;;33.83;24.47;;;;;;;;;;5053447;28;20067;-61
2023/04/17 07:21:02;;;;;;;37.77;26.73;;;;;;;;;;5048504;28;20091;-61
2023/04/17 07:23:28;;;;;;;36.73;25.10;;;;;;;;;;5053845;28;20116;-60
2023/04/17 07:25:54;;;;;;;34.10;23.40;;;;;;;;;;5057226;28;20128;-61
2023/04/17 07:28:20;;;;;;;31.33;22.10;;;;;;;;;;5049591;28;20163;-61
2023/04/17 07:30:46;;;;;;;36.87;24.83;;;;;;;;;;5056293;28;20495;-61
2023/04/17 07:33:12;;;;;;;33.73;24.50;;;;;;;;;;5056065;28;20094;-61
2023/04/17 07:35:38;;;;;;;33.17;24.73;;;;;;;;;;5057401;28;20033;-61
2023/04/17 07:38:04;;;;;;;32.80;23.90;;;;;;;;;;5053668;28;20164;-61
2023/04/17 07:40:32;;;;;;;34.23;24.50;;;;;;;;;;5057833;28;20040;-61
2023/04/17 07:42:58;;;;;;;34.30;23.37;;;;;;;;;;5057333;28;20073;-61
2023/04/17 07:45:25;;;;;;;33.03;23.87;;;;;;;;;;5052217;28;20410;-61
2023/04/17 07:47:52;;;;;;;31.87;22.27;;;;;;;;;;5051573;28;20052;-61
2023/04/17 07:50:18;;;;;;;31.53;21.67;;;;;;;;;;5062468;28;20048;-62
2023/04/17 07:52:45;;;;;;;34.27;22.87;;;;;;;;;;5066311;28;20048;-61
2023/04/17 07:55:11;;;;;;;31.30;22.80;;;;;;;;;;5061865;28;20095;-61
2023/04/17 07:57:41;;;;;;;29.77;22.87;;;;;;;;;;5051781;28;20480;-61
2023/04/17 08:00:13;;;;;;;28.83;22.47;;;;;;;;;;5059132;28;20068;-61
2023/04/17 08:02:40;;;;;;;34.30;22.93;;;;;;;;;;5059060;28;20080;-62
2023/04/17 08:05:06;;;;;;;31.90;22.07;;;;;;;;;;5056578;28;20060;-62
2023/04/17 08:07:32;;;;;;;27.30;22.00;;;;;;;;;;5050096;28;20045;-61
2023/04/17 08:09:58;;;;;;;30.10;22.83;;;;;;;;;;5051635;28;20041;-62
2023/04/17 08:12:24;;;;;;;31.03;22.63;;;;;;;;;;5051414;28;20206;-60
2023/04/17 08:14:50;;;;;;;30.77;22.57;;;;;;;;;;5055349;28;20089;-61
2023/04/17 08:17:21;;;;;;;30.43;22.30;;;;;;;;;;5071252;28;20514;-61
2023/04/17 08:19:49;;;;;;;32.73;22.57;;;;;;;;;;5071064;28;20075;-60
2023/04/17 08:22:16;;;;;;;30.60;22.00;;;;;;;;;;5069854;28;20621;-60
2023/04/17 08:24:42;;;;;;;28.33;22.60;;;;;;;;;;5069451;28;20090;-60
2023/04/17 08:27:08;;;;;;;30.40;23.40;;;;;;;;;;5069762;28;20052;-60
2023/04/17 08:29:34;;;;;;;27.93;20.97;;;;;;;;;;5068656;28;20056;-60
2023/04/17 08:32:00;;;;;;;28.63;20.63;;;;;;;;;;5048585;28;20081;-60
2023/04/17 08:34:26;;;;;;;25.17;19.47;;;;;;;;;;5055424;28;20083;-60
2023/04/17 08:36:52;;;;;;;25.90;20.40;;;;;;;;;;5069574;28;20047;-61
2023/04/17 08:39:18;;;;;;;27.43;18.87;;;;;;;;;;5070911;28;20482;-60
2023/04/17 08:41:59;;;;;;;27.43;20.40;;;;;;;;;;5071190;28;20044;-60
2023/04/17 08:44:26;;;;;;;28.77;19.63;;;;;;;;;;5070803;28;20049;-60
2023/04/17 08:46:52;;;;;;;24.20;18.87;;;;;;;;;;5070438;28;20041;-61
2023/04/17 08:49:18;;;;;;;27.33;20.57;;;;;;;;;;5070310;28;20036;-60
2023/04/17 08:51:46;;;;;;;29.93;21.40;;;;;;;;;;5070334;28;20098;-60
2023/04/17 08:54:12;;;;;;;26.70;20.47;;;;;;;;;;5069909;28;20055;-60
2023/04/17 08:56:38;;;;;;;24.97;19.70;;;;;;;;;;5069749;28;20106;-61
2023/04/17 08:59:04;;;;;;;24.27;18.70;;;;;;;;;;5070421;28;20495;-60
2023/04/17 09:01:33;;;;;;;23.90;17.53;;;;;;;;;;5054614;28;20064;-61
2023/04/17 09:04:00;;;;;;;25.60;19.83;;;;;;;;;;5050634;28;20052;-61
2023/04/17 09:06:26;;;;;;;23.33;18.07;;;;;;;;;;5050341;28;20499;-62
2023/04/17 09:08:58;;;;;;;22.57;18.27;;;;;;;;;;5050643;28;20052;-62
2023/04/17 09:11:24;;;;;;;23.67;19.40;;;;;;;;;;5050235;28;20052;-61
2023/04/17 09:13:51;;;;;;;23.57;17.47;;;;;;;;;;5050246;28;20045;-61
2023/04/17 09:16:19;;;;;;;22.63;17.93;;;;;;;;;;5050171;28;20550;-61
2023/04/17 09:18:46;;;;;;;19.77;17.33;;;;;;;;;;5050065;28;20060;-61
2023/04/17 09:21:13;;;;;;;23.20;18.17;;;;;;;;;;5050215;28;20463;-61
2023/04/17 09:23:50;;;;;;;23.10;18.83;;;;;;;;;;5049938;28;20076;-61
2023/04/17 09:26:17;;;;;;;23.03;17.60;;;;;;;;;;5049288;28;20044;-61
2023/04/17 09:28:59;;;;;;;21.53;17.27;;;;;;;;;;5050033;28;20198;-61
2023/04/17 09:31:26;;;;;;;24.20;17.83;;;;;;;;;;5049987;28;20041;-61
2023/04/17 09:33:59;;;;;;;24.53;19.00;;;;;;;;;;5050161;28;20037;-59
2023/04/17 09:36:26;;;;;;;24.58;18.83;;;;;;;;;;5049798;28;20341;-61
2023/04/17 09:38:52;;;;;;;21.63;19.13;;;;;;;;;;5050164;28;20060;-60
2023/04/17 09:41:28;;;;;;;23.60;19.77;;;;;;;;;;5049174;28;20106;-61
2023/04/17 09:43:55;;;;;;;24.07;18.77;;;;;;;;;;5049887;28;20045;-59
2023/04/17 09:46:34;;;;;;;24.40;19.83;;;;;;;;;;5049771;28;20060;-60
2023/04/17 09:49:01;;;;;;;25.00;20.97;;;;;;;;;;5050066;28;20492;-60
2023/04/17 09:51:27;;;;;;;25.93;20.97;;;;;;;;;;5048974;28;20120;-60
2023/04/17 09:53:55;;;;;;;24.97;21.70;;;;;;;;;;5049276;28;20045;-60
2023/04/17 09:56:23;;;;;;;24.33;20.30;;;;;;;;;;5049415;28;20098;-60
2023/04/17 09:58:50;;;;;;;24.60;21.63;;;;;;;;;;5049313;28;20053;-63
2023/04/17 10:01:16;;;;;;;23.37;20.73;;;;;;;;;;5064916;28;20044;-60
2023/04/17 10:03:42;;;;;;;23.60;20.50;;;;;;;;;;5048901;28;20048;-60
2023/04/17 10:06:09;;;;;;;24.60;20.70;;;;;;;;;;5049075;28;20073;-60
2023/04/17 10:08:35;;;;;;;26.33;21.90;;;;;;;;;;5049215;28;20041;-60
2023/04/17 10:11:05;;;;;;;27.70;21.50;;;;;;;;;;5048598;28;20044;-60
2023/04/17 10:13:32;;;;;;;26.73;21.93;;;;;;;;;;5049130;28;20052;-60
2023/04/17 10:15:58;;;;;;;26.20;21.90;;;;;;;;;;5049325;28;20044;-60
2023/04/17 10:18:26;;;;;;;27.00;21.67;;;;;;;;;;5049106;28;20056;-60
2023/04/17 10:20:54;;;;;;;25.30;21.30;;;;;;;;;;5049255;28;20122;-61
2023/04/17 10:23:25;;;;;;;28.10;21.30;;;;;;;;;;5048808;28;20083;-60
2023/04/17 10:26:13;;;;;;;29.20;21.63;;;;;;;;;;5047753;28;20059;-60
2023/04/17 10:28:48;;;;;;;27.93;21.10;;;;;;;;;;5064502;28;20060;-60
2023/04/17 10:31:15;;;;;;;24.50;21.97;;;;;;;;;;5056527;28;20129;-60
2023/04/17 10:33:48;;;;;;;24.10;20.17;;;;;;;;;;5063973;28;20099;-60
2023/04/17 10:36:33;;;;;;;23.30;19.57;;;;;;;;;;5057192;28;20053;-60
2023/04/17 10:39:19;;;;;;;21.17;18.90;;;;;;;;;;5062530;28;20087;-60
2023/04/17 10:42:04;;;;;;;24.43;19.37;;;;;;;;;;5049103;28;20106;-60
2023/04/17 10:44:39;;;;;;;21.30;19.10;;;;;;;;;;5065212;28;20079;-60
2023/04/17 10:47:06;;;;;;;22.53;16.93;;;;;;;;;;5068894;28;20677;-61
2023/04/17 10:49:48;;;;;;;17.90;15.13;;;;;;;;;;5068894;28;20398;-62
2023/04/17 10:52:33;;;;;;;16.07;14.47;;;;;;;;;;5068982;28;20048;-62
2023/04/17 10:55:07;;;;;;;18.70;13.77;;;;;;;;;;5069070;28;20131;-62
2023/04/17 10:57:51;;;;;;;17.83;15.30;;;;;;;;;;5068332;28;20051;-62
2023/04/17 11:00:18;;;;;;;17.00;14.93;;;;;;;;;;5060078;28;20412;-61
2023/04/17 11:02:44;;;;;;;17.13;15.03;;;;;;;;;;5051641;28;20041;-61
2023/04/17 11:05:11;;;;;;;16.80;14.17;;;;;;;;;;5060247;28;20053;-62
2023/04/17 11:07:37;;;;;;;19.10;16.00;;;;;;;;;;5057986;28;20049;-62
2023/04/17 11:10:06;;;;;;;17.07;15.27;;;;;;;;;;5052422;28;20226;-61
2023/04/17 11:12:33;;;;;;;17.30;13.20;;;;;;;;;;5059322;28;20520;-61
2023/04/17 11:15:02;;;;;;;14.63;12.40;;;;;;;;;;5060232;28;20124;-60
2023/04/17 11:17:29;;;;;;;12.73;11.37;;;;;;;;;;5055461;28;20499;-61
2023/04/17 11:19:55;;;;;;;16.83;12.47;;;;;;;;;;5059443;28;20049;-61
2023/04/17 11:22:21;;;;;;;14.93;12.80;;;;;;;;;;5060886;28;20048;-61
2023/04/17 11:24:50;;;;;;;12.53;10.97;;;;;;;;;;5063209;28;20100;-62
2023/04/17 11:27:16;;;;;;;14.10;10.97;;;;;;;;;;5060784;28;20045;-61
2023/04/17 11:29:44;;;;;;;15.17;10.13;;;;;;;;;;5062943;28;20044;-61
2023/04/17 11:32:11;;;;;;;13.47;10.83;;;;;;;;;;5062660;28;20056;-61
2023/04/17 11:34:37;;;;;;;12.47;10.57;;;;;;;;;;5066636;28;20041;-61
2023/04/17 11:37:04;;;;;;;11.57;10.37;;;;;;;;;;5060962;28;20503;-61
2023/04/17 11:39:33;;;;;;;13.53;9.20;;;;;;;;;;5062975;28;20442;-61
2023/04/17 11:42:01;;;;;;;15.17;11.27;;;;;;;;;;5061405;28;20445;-60
2023/04/17 11:44:28;;;;;;;11.63;10.10;;;;;;;;;;5062823;28;20049;-61
2023/04/17 11:46:55;;;;;;;12.23;9.53;;;;;;;;;;5060170;28;20033;-61
2023/04/17 11:49:37;;;;;;;13.50;9.87;;;;;;;;;;5056706;28;20084;-61
2023/04/17 11:52:04;;;;;;;12.27;10.45;;;;;;;;;;5065010;28;20725;-61
2023/04/17 11:54:31;;;;;;;15.13;9.50;;;;;;;;;;5071432;28;20591;-61
2023/04/17 11:57:01;;;;;;;11.00;9.00;;;;;;;;;;5072229;28;20487;-61
2023/04/17 11:59:34;;;;;;;14.32;9.98;;;;;;;;;;5070446;28;20079;-61
2023/04/17 12:02:00;;;;;;;12.65;9.25;;;;;;;;;;5069177;28;20044;-61
2023/04/17 12:04:32;;;;;;;10.17;8.70;;;;;;;;;;5070093;28;20107;-61
2023/04/17 12:06:58;;;;;;;11.05;8.35;;;;;;;;;;5060044;28;20451;-61
2023/04/17 12:09:30;;;;;;;12.47;9.57;;;;;;;;;;5069863;28;20040;-60
2023/04/17 12:11:57;;;;;;;14.77;8.87;;;;;;;;;;5069224;28;20908;-60
2023/04/17 12:14:23;;;;;;;11.07;7.83;;;;;;;;;;5069632;28;20052;-60
2023/04/17 12:16:50;;;;;;;9.33;7.87;;;;;;;;;;5070291;28;20041;-60
2023/04/17 12:19:18;;;;;;;10.13;8.17;;;;;;;;;;5069806;28;20159;-60
2023/04/17 12:21:46;;;;;;;12.83;8.50;;;;;;;;;;5070128;28;20048;-60
2023/04/17 12:24:12;;;;;;;11.93;8.67;;;;;;;;;;5069263;28;20108;-60
2023/04/17 12:26:49;;;;;;;11.40;8.90;;;;;;;;;;5058022;28;20039;-60
2023/04/17 12:29:16;;;;;;;10.37;8.50;;;;;;;;;;5052205;28;20056;-60
2023/04/17 12:31:42;;;;;;;11.40;8.10;;;;;;;;;;5068202;28;20056;-61
2023/04/17 12:34:08;;;;;;;13.33;8.73;;;;;;;;;;5054775;28;20055;-61
2023/04/17 12:36:34;;;;;;;9.40;8.43;;;;;;;;;;5051358;28;20045;-61
2023/04/17 12:39:00;;;;;;;10.07;7.72;;;;;;;;;;5052287;28;20120;-61
2023/04/17 12:41:26;;;;;;;9.15;8.18;;;;;;;;;;5052742;28;20127;-61
2023/04/17 12:43:53;;;;;;;11.43;8.95;;;;;;;;;;5058951;28;20044;-61
2023/04/17 12:46:20;;;;;;;11.15;8.82;;;;;;;;;;5070535;28;20130;-61
2023/04/17 12:48:46;;;;;;;10.80;8.35;;;;;;;;;;5071126;28;20054;-61
2023/04/17 12:51:12;;;;;;;10.10;8.27;;;;;;;;;;5071196;28;20052;-61
2023/04/17 12:53:38;;;;;;;9.98;8.95;;;;;;;;;;5070502;28;20044;-61
2023/04/17 12:56:04;;;;;;;11.55;9.07;;;;;;;;;;5070965;28;20373;-61
2023/04/17 12:58:31;;;;;;;13.10;8.50;;;;;;;;;;5070728;28;20052;-62
2023/04/17 13:00:57;;;;;;;11.18;8.77;;;;;;;;;;5057992;28;20172;-61
2023/04/17 13:03:23;;;;;;;13.15;9.68;;;;;;;;;;5050667;28;20052;-61
2023/04/17 13:05:52;;;;;;;11.27;9.32;;;;;;;;;;5051150;28;20128;-61
2023/04/17 13:08:18;;;;;;;11.02;9.80;;;;;;;;;;5051003;28;20055;-61
2023/04/17 13:10:44;;;;;;;11.50;9.77;;;;;;;;;;5050154;28;20437;-61
2023/04/17 13:13:11;;;;;;;13.20;9.03;;;;;;;;;;5050879;28;20175;-61
2023/04/17 13:15:37;;;;;;;13.23;9.37;;;;;;;;;;5060889;28;20041;-61
2023/04/17 13:18:03;;;;;;;10.47;8.60;;;;;;;;;;5070776;28;20046;-61
2023/04/17 13:20:29;;;;;;;11.52;8.45;;;;;;;;;;5070166;28;20396;-61
2023/04/17 13:22:55;;;;;;;12.45;8.68;;;;;;;;;;5070517;28;20409;-61
2023/04/17 13:25:21;;;;;;;9.38;8.05;;;;;;;;;;5069770;28;20044;-61
2023/04/17 13:27:48;;;;;;;12.05;8.30;;;;;;;;;;5070113;28;20051;-61
2023/04/17 13:30:14;;;;;;;12.85;7.45;;;;;;;;;;5062226;28;20041;-61
2023/04/17 13:32:40;;;;;;;11.57;8.02;;;;;;;;;;5058254;28;20051;-61
2023/04/17 13:35:08;;;;;;;11.23;7.35;;;;;;;;;;5059903;28;20454;-61
2023/04/17 13:37:34;;;;;;;9.50;7.80;;;;;;;;;;5057316;28;20075;-61
2023/04/17 13:40:03;;;;;;;12.25;7.22;;;;;;;;;;5058983;28;20446;-61
2023/04/17 13:42:30;;;;;;;15.70;8.25;;;;;;;;;;5051638;28;20079;-61
2023/04/17 13:44:56;;;;;;;17.40;7.65;;;;;;;;;;5050113;28;20101;-61
2023/04/17 13:47:22;;;;;;;8.95;7.38;;;;;;;;;;5058176;28;20085;-61
2023/04/17 13:49:48;;;;;;;10.85;8.32;;;;;;;;;;5059629;28;20048;-60
2023/04/17 13:52:14;;;;;;;9.95;8.35;;;;;;;;;;5059023;28;20128;-60
2023/04/17 13:54:40;;;;;;;9.70;8.20;;;;;;;;;;5057480;28;20048;-60
2023/04/17 13:57:08;;;;;;;10.00;8.10;;;;;;;;;;5059530;28;20699;-61
2023/04/17 13:59:34;;;;;;;9.05;8.05;;;;;;;;;;5058752;28;20049;-61
2023/04/17 14:02:02;;;;;;;10.23;8.02;;;;;;;;;;5054601;28;20049;-61
2023/04/17 14:04:30;;;;;;;9.32;7.95;;;;;;;;;;5059240;28;20127;-60
2023/04/17 14:06:56;;;;;;;12.10;8.27;;;;;;;;;;5057717;28;20415;-61
2023/04/17 14:09:22;;;;;;;10.13;9.07;;;;;;;;;;5058579;28;20463;-61
2023/04/17 14:11:48;;;;;;;11.45;8.43;;;;;;;;;;5054969;28;20044;-60
2023/04/17 14:14:14;;;;;;;9.88;8.85;;;;;;;;;;5050383;28;20040;-60
2023/04/17 14:16:40;;;;;;;9.55;8.65;;;;;;;;;;5049800;28;20047;-60
2023/04/17 14:19:07;;;;;;;10.50;8.30;;;;;;;;;;5049554;28;20461;-60